Time;durP1;ratioP1;P1;durP2;ratioP2;P2;SDS_P1;SDS_P2;PMS_P1;PMS_P2;Temp;Humidity;BMP_temperature;BMP_pressure;BME280_temperature;BME280_humidity;BME280_pressure;Samples;Min_cycle;Max_cycle;Signal;HPM_P1;HPM_P2
2022/01/06 00:02:09;;;;;;;7.65;2.80;;;;;;;2.33;82.52;97669.52;1724901;82;21488;-41
2022/01/06 00:04:34;;;;;;;;;;;;;;;2.43;81.91;97656.50;1727465;83;20991;-41
2022/01/06 00:07:00;;;;;;;6.85;3.02;;;;;;;2.33;82.49;97657.41;1724824;83;20160;-41
2022/01/06 00:09:26;;;;;;;7.65;3.15;;;;;;;2.35;82.39;97663.37;1724794;83;21057;-43
2022/01/06 00:11:51;;;;;;;5.40;2.98;;;;;;;2.37;82.29;97657.64;1724769;83;21022;-41
2022/01/06 00:14:36;;;;;;;10.58;3.35;;;;;;;2.35;82.45;97660.77;1724793;83;21062;-41
2022/01/06 00:17:02;;;;;;;;;;;;;;;2.36;82.72;97663.73;1724530;83;21010;-40
2022/01/06 00:24:41;;;;;;;10.28;3.17;;;;;;;2.39;82.52;97661.47;1725043;83;21488;-41
2022/01/06 00:27:06;;;;;;;9.48;3.35;;;;;;;2.36;82.21;97657.25;1724857;83;21022;-42
2022/01/06 00:29:32;;;;;;;5.75;2.92;;;;;;;2.28;82.60;97656.33;1724806;83;21014;-42
2022/01/06 00:31:58;;;;;;;7.78;3.27;;;;;;;2.32;82.79;97658.78;1724769;83;21019;-41
2022/01/06 00:34:24;;;;;;;10.03;3.83;;;;;;;2.30;82.67;97654.49;1724745;83;21453;-42
2022/01/06 00:36:49;;;;;;;10.38;3.20;;;;;;;2.35;82.58;97663.80;1724735;83;21018;-42
2022/01/06 00:39:15;;;;;;;8.55;3.30;;;;;;;2.30;82.77;97664.88;1724782;83;21002;-42
2022/01/06 00:41:41;;;;;;;7.30;3.12;;;;;;;2.28;83.00;97665.88;1724784;83;21054;-42
2022/01/06 00:44:08;;;;;;;9.18;3.42;;;;;;;2.24;83.42;97662.58;1724786;83;21010;-42
2022/01/06 00:46:34;;;;;;;4.87;3.08;;;;;;;2.25;83.49;97660.36;1725019;83;21500;-42
2022/01/06 00:49:00;;;;;;;6.55;3.47;;;;;;;2.30;83.37;97670.52;1702149;83;21617;-42
2022/01/06 00:51:26;;;;;;;7.90;3.20;;;;;;;2.23;83.30;97656.16;1692929;84;21045;-42
2022/01/06 00:53:51;;;;;;;5.17;2.70;;;;;;;2.34;83.26;97656.95;1692979;84;20997;-41
2022/01/06 00:56:17;;;;;;;9.65;3.35;;;;;;;2.28;83.77;97663.28;1692829;84;21002;-42
2022/01/06 00:58:43;;;;;;;9.53;3.35;;;;;;;2.28;83.92;97662.81;1692869;84;21078;-41
2022/01/06 01:01:09;;;;;;;6.45;3.27;;;;;;;2.35;83.71;97671.58;1692894;83;20998;-40
2022/01/06 01:03:34;;;;;;;6.72;3.02;;;;;;;2.36;83.48;97673.28;1693004;84;20998;-40
2022/01/06 01:06:01;;;;;;;11.65;3.58;;;;;;;2.37;83.59;97674.97;1692868;84;21073;-40
2022/01/06 01:08:28;;;;;;;7.03;3.07;;;;;;;2.37;83.49;97677.10;1693130;84;21018;-40
2022/01/06 01:10:56;;;;;;;7.50;3.33;;;;;;;2.38;83.79;97672.74;1692661;84;21062;-40
2022/01/06 01:13:32;;;;;;;10.70;2.90;;;;;;;2.43;83.59;97693.66;1692901;84;21042;-40
2022/01/06 01:15:53;;;;;;;10.98;2.83;;;;;;;2.40;84.09;97673.50;1690850;84;20994;-40
2022/01/06 01:18:19;;;;;;;;;;;;;;;2.44;83.71;97687.56;1695106;84;21002;-41
2022/01/06 01:20:49;;;;;;;;;;;;;;;2.46;83.71;97688.33;1695418;84;20116;-41
2022/01/06 01:23:17;;;;;;;10.58;3.12;;;;;;;2.45;83.79;97685.80;1692813;84;20117;-41
2022/01/06 01:25:44;;;;;;;6.58;3.10;;;;;;;2.43;83.89;97683.28;1692854;83;21009;-40
2022/01/06 01:28:11;;;;;;;7.67;2.87;;;;;;;2.49;83.86;97687.33;1693132;84;20970;-41
2022/01/06 01:30:53;;;;;;;9.43;3.27;;;;;;;2.49;83.83;97684.73;1693083;84;20982;-41
2022/01/06 01:33:16;;;;;;;6.45;3.35;;;;;;;2.52;83.64;97688.48;1691139;84;21001;-41
2022/01/06 01:35:38;;;;;;;8.25;3.42;;;;;;;2.51;83.76;97690.72;1692334;84;21002;-41
2022/01/06 01:38:04;;;;;;;8.20;2.67;;;;;;;2.45;83.38;97681.91;1692924;84;21046;-41
2022/01/06 01:40:30;;;;;;;9.88;3.02;;;;;;;2.51;83.57;97685.53;1692937;84;21010;-41
2022/01/06 01:42:55;;;;;;;10.03;3.20;;;;;;;2.54;83.50;97689.25;1692918;84;21005;-41
2022/01/06 01:45:27;;;;;;;8.25;2.85;;;;;;;2.59;83.36;97700.72;1692896;83;21499;-41
2022/01/06 01:47:49;;;;;;;10.55;3.45;;;;;;;2.62;83.21;97696.66;1692194;83;20994;-40
2022/01/06 01:50:17;;;;;;;8.70;3.40;;;;;;;2.61;83.21;97696.30;1692835;84;21119;-41
2022/01/06 01:52:48;;;;;;;;;;;;;;;2.62;83.22;97697.52;1695342;84;21034;-41
2022/01/06 01:55:19;;;;;;;7.95;3.25;;;;;;;2.63;83.24;97706.97;1692808;85;20509;-40
2022/01/06 01:57:45;;;;;;;9.35;4.00;;;;;;;2.63;83.58;97711.33;1692754;84;20997;-41
2022/01/06 02:00:14;;;;;;;7.47;3.20;;;;;;;2.61;83.63;97706.20;1692799;84;21037;-41
2022/01/06 02:02:41;;;;;;;5.33;2.50;;;;;;;2.68;83.30;97704.99;1692793;84;21030;-40
2022/01/06 02:05:08;;;;;;;5.67;2.73;;;;;;;2.68;83.32;97707.59;1693319;84;20982;-45
2022/01/06 02:07:35;;;;;;;7.50;2.60;;;;;;;2.73;83.18;97707.81;1692964;84;21052;-45
2022/01/06 02:10:04;;;;;;;5.37;2.87;;;;;;;2.73;83.03;97703.92;1675172;85;21009;-40
2022/01/06 02:12:33;;;;;;;6.30;2.60;;;;;;;2.78;82.90;97712.33;1692811;84;21806;-40
2022/01/06 02:14:59;;;;;;;4.22;2.42;;;;;;;2.81;82.76;97704.40;1692751;84;21465;-40
2022/01/06 02:17:25;;;;;;;6.03;2.65;;;;;;;2.82;82.77;97699.58;1692918;84;21054;-40
2022/01/06 02:20:03;;;;;;;9.45;3.22;;;;;;;2.85;82.64;97698.13;1692832;84;20974;-40
2022/01/06 02:22:28;;;;;;;3.85;2.22;;;;;;;2.84;82.58;97697.77;1692820;84;20978;-40
2022/01/06 02:24:54;;;;;;;8.93;2.95;;;;;;;2.92;82.51;97705.17;1692808;85;21042;-41
2022/01/06 02:27:21;;;;;;;7.65;2.80;;;;;;;2.83;82.46;97693.02;1692795;83;21495;-41
2022/01/06 02:29:48;;;;;;;7.10;2.70;;;;;;;2.88;82.37;97699.29;1693069;85;20986;-41
2022/01/06 02:32:16;;;;;;;7.55;2.55;;;;;;;2.88;82.37;97692.33;1692987;85;21118;-41
2022/01/06 02:34:44;;;;;;;4.92;2.22;;;;;;;2.94;82.04;97695.55;1692803;84;21487;-40
2022/01/06 02:37:14;;;;;;;5.47;2.37;;;;;;;2.87;82.17;97691.11;1691874;85;20978;-41
2022/01/06 02:39:41;;;;;;;5.25;2.67;;;;;;;2.97;82.27;97697.53;1692781;84;21041;-41
2022/01/06 02:42:08;;;;;;;7.37;2.55;;;;;;;2.98;82.26;97699.66;1724897;81;21114;-41
2022/01/06 02:44:37;;;;;;;10.00;3.23;;;;;;;2.98;82.33;97694.00;1759697;81;20971;-41
2022/01/06 02:47:02;;;;;;;7.35;2.65;;;;;;;2.96;82.48;97701.50;1759334;81;20986;-41
2022/01/06 02:49:28;;;;;;;6.62;2.58;;;;;;;2.83;83.04;97722.03;1758633;81;21002;-41
2022/01/06 02:51:54;;;;;;;5.90;2.45;;;;;;;2.83;83.43;97715.55;1759428;81;20999;-41
2022/01/06 02:54:21;;;;;;;5.30;2.90;;;;;;;2.78;83.96;97711.86;1759410;81;20999;-41
2022/01/06 02:56:48;;;;;;;4.95;2.40;;;;;;;2.78;83.65;97718.35;1759580;81;21014;-42
2022/01/06 02:59:15;;;;;;;7.12;2.50;;;;;;;2.77;84.13;97723.18;1759565;81;21665;-41
2022/01/06 03:01:43;;;;;;;4.20;2.20;;;;;;;2.72;84.33;97723.02;1759668;81;20990;-41
2022/01/06 03:04:11;;;;;;;5.62;2.80;;;;;;;2.65;84.86;97724.59;1759440;81;21483;-41
2022/01/06 03:06:37;;;;;;;7.87;2.98;;;;;;;2.62;85.33;97726.50;1759724;81;21025;-41
2022/01/06 03:09:03;;;;;;;9.23;2.87;;;;;;;2.59;85.45;97727.50;1759452;81;20993;-41
2022/01/06 03:11:30;;;;;;;5.95;2.62;;;;;;;2.60;86.05;97729.63;1759670;81;21804;-40
2022/01/06 03:13:56;;;;;;;7.03;2.90;;;;;;;2.65;85.80;97736.75;1759577;81;21003;-40
2022/01/06 03:16:23;;;;;;;6.00;2.40;;;;;;;2.65;85.98;97738.88;1759426;81;21003;-41
2022/01/06 03:18:49;;;;;;;6.45;3.25;;;;;;;2.73;85.40;97742.86;1759467;81;20994;-40
2022/01/06 03:21:15;;;;;;;4.42;2.27;;;;;;;2.65;85.52;97741.94;1759528;81;20966;-41
2022/01/06 03:23:40;;;;;;;7.85;2.72;;;;;;;2.71;85.14;97748.58;1759479;81;21669;-41
2022/01/06 03:26:06;;;;;;;7.97;2.72;;;;;;;2.69;85.13;97745.63;1759402;81;21042;-41
2022/01/06 03:28:33;;;;;;;3.65;2.62;;;;;;;2.70;85.54;97745.16;1759431;81;20990;-41
2022/01/06 03:30:59;;;;;;;4.42;2.25;;;;;;;2.68;85.43;97750.88;1759428;81;21002;-41
2022/01/06 03:33:25;;;;;;;2.83;2.47;;;;;;;2.74;85.45;97765.31;1759455;81;20998;-41
2022/01/06 03:35:51;;;;;;;8.53;2.58;;;;;;;2.78;85.20;97759.05;1759388;81;21002;-41
2022/01/06 03:38:17;;;;;;;5.20;2.47;;;;;;;2.73;85.04;97755.84;1759535;81;20998;-41
2022/01/06 03:40:43;;;;;;;4.47;2.92;;;;;;;2.71;85.32;97760.27;1759547;81;20975;-41
2022/01/06 03:43:09;;;;;;;6.00;2.55;;;;;;;2.74;85.11;97764.02;1759478;81;21109;-41
2022/01/06 03:45:35;;;;;;;9.23;2.50;;;;;;;2.73;85.21;97766.22;1759605;81;21006;-40
2022/01/06 03:48:03;;;;;;;3.75;2.37;;;;;;;2.80;85.00;97775.39;1759568;81;20967;-40
2022/01/06 03:50:30;;;;;;;4.33;2.70;;;;;;;2.76;84.98;97766.91;1759696;81;21491;-40
2022/01/06 03:52:56;;;;;;;4.03;2.55;;;;;;;2.79;85.22;97768.54;1759864;81;21515;-40
2022/01/06 03:55:22;;;;;;;8.03;3.05;;;;;;;2.86;84.74;97779.02;1759508;81;20975;-40
2022/01/06 03:57:48;;;;;;;7.67;2.33;;;;;;;2.86;84.67;97776.42;1759549;81;21071;-40
2022/01/06 04:00:19;;;;;;;7.53;2.72;;;;;;;2.83;84.80;97777.85;1759721;81;20999;-40
2022/01/06 04:02:46;;;;;;;8.53;3.27;;;;;;;2.87;84.74;97769.00;1759474;81;20990;-40
2022/01/06 04:05:12;;;;;;;8.08;2.70;;;;;;;2.80;84.80;97782.75;1759737;81;21002;-40
2022/01/06 04:07:39;;;;;;;4.55;2.45;;;;;;;2.77;84.63;97775.56;1759525;81;20989;-40
2022/01/06 04:10:08;;;;;;;5.22;2.40;;;;;;;2.87;84.82;97766.40;1759756;81;20998;-40
2022/01/06 04:12:35;;;;;;;5.80;2.50;;;;;;;2.87;84.45;97772.89;1759547;81;20967;-40
2022/01/06 04:15:03;;;;;;;;;;;;;;;2.82;84.73;97782.65;1762107;81;20982;-40
2022/01/06 04:17:29;;;;;;;6.12;2.70;;;;;;;2.81;84.89;97780.98;1757414;81;20158;-40
2022/01/06 04:19:54;;;;;;;5.40;2.52;;;;;;;2.72;84.79;97781.43;1758328;81;22218;-40
2022/01/06 04:22:20;;;;;;;4.58;2.40;;;;;;;2.81;84.74;97789.61;1758402;81;21033;-40
2022/01/06 04:24:46;;;;;;;6.22;2.45;;;;;;;2.81;84.35;97780.98;1758357;81;21068;-41
2022/01/06 04:27:12;;;;;;;10.20;2.17;;;;;;;2.78;84.35;97783.72;1758212;81;21065;-42
2022/01/06 04:29:38;;;;;;;5.45;2.40;;;;;;;2.81;84.05;97774.03;1758413;81;21070;-40
2022/01/06 04:32:06;;;;;;;6.72;2.45;;;;;;;2.84;83.69;97778.25;1758411;81;21045;-40
2022/01/06 04:34:32;;;;;;;4.80;2.35;;;;;;;2.77;83.91;97779.45;1759527;81;21493;-40
2022/01/06 04:36:59;;;;;;;3.00;2.08;;;;;;;2.73;83.96;97783.09;1759514;81;21147;-40
2022/01/06 04:39:25;;;;;;;5.17;2.20;;;;;;;2.68;83.91;97788.52;1759681;81;21029;-40
2022/01/06 04:41:51;;;;;;;4.95;2.40;;;;;;;2.69;84.02;97793.64;1759431;81;21014;-40
2022/01/06 04:44:17;;;;;;;3.08;2.25;;;;;;;2.72;84.00;97792.64;1759612;81;21034;-40
2022/01/06 04:46:43;;;;;;;3.20;1.98;;;;;;;2.63;84.02;97790.02;1759536;81;20990;-40
2022/01/06 04:49:09;;;;;;;3.77;2.65;;;;;;;2.63;84.17;97799.10;1759580;81;20979;-41
2022/01/06 04:51:35;;;;;;;4.08;2.45;;;;;;;2.63;84.00;97798.27;1759571;81;21744;-41
2022/01/06 04:54:04;;;;;;;3.52;2.30;;;;;;;2.58;84.17;97801.53;1759606;81;20982;-41
2022/01/06 04:56:36;;;;;;;4.10;2.62;;;;;;;2.55;84.53;97799.94;1759467;81;21034;-41
2022/01/06 04:58:57;;;;;;;;;;;;;;;2.62;84.32;97802.62;1761041;81;20955;-41
2022/01/06 05:01:23;;;;;;;3.55;2.42;;;;;;;2.62;84.21;97813.44;1759560;81;20110;-41
2022/01/06 05:03:48;;;;;;;2.95;2.62;;;;;;;2.62;84.47;97814.31;1759620;81;21034;-41
2022/01/06 05:06:14;;;;;;;6.85;2.58;;;;;;;2.59;84.50;97818.33;1759575;81;21037;-41
2022/01/06 05:08:40;;;;;;;4.33;2.67;;;;;;;2.62;84.39;97819.50;1759518;81;20970;-41
2022/01/06 05:11:05;;;;;;;4.28;2.55;;;;;;;2.59;84.64;97820.93;1759455;81;20979;-41
2022/01/06 05:13:31;;;;;;;4.05;2.50;;;;;;;2.53;84.89;97816.03;1759478;81;21018;-40
2022/01/06 05:15:57;;;;;;;8.18;2.52;;;;;;;2.57;84.67;97818.03;1759487;81;20983;-40
2022/01/06 05:18:23;;;;;;;7.03;3.50;;;;;;;2.57;84.80;97812.84;1759610;81;20987;-41
2022/01/06 05:20:48;;;;;;;4.75;2.70;;;;;;;2.62;84.75;97812.14;1759481;81;20994;-41
2022/01/06 05:23:14;;;;;;;4.87;2.77;;;;;;;2.60;85.12;97813.55;1759622;81;20982;-41
2022/01/06 05:25:40;;;;;;;3.92;2.72;;;;;;;2.61;85.04;97820.86;1759523;81;20970;-41
2022/01/06 05:28:06;;;;;;;3.22;2.90;;;;;;;2.62;84.84;97816.04;1759488;81;20986;-41
2022/01/06 05:30:32;;;;;;;7.35;2.90;;;;;;;2.58;84.64;97823.13;1759431;81;20990;-41
2022/01/06 05:32:58;;;;;;;3.15;2.55;;;;;;;2.57;84.78;97811.55;1759492;81;20982;-41
2022/01/06 05:35:24;;;;;;;5.12;3.00;;;;;;;2.55;84.96;97819.40;1759487;81;21530;-41
2022/01/06 05:37:49;;;;;;;4.58;2.85;;;;;;;2.48;85.05;97814.94;1759586;81;21543;-40
2022/01/06 05:40:15;;;;;;;2.77;2.50;;;;;;;2.52;85.10;97820.00;1759448;81;20986;-41
2022/01/06 05:42:41;;;;;;;7.35;2.87;;;;;;;2.49;85.03;97817.93;1759416;81;21007;-40
2022/01/06 05:45:09;;;;;;;3.80;3.05;;;;;;;2.53;84.83;97825.12;1759479;81;21442;-40
2022/01/06 05:47:35;;;;;;;2.98;2.67;;;;;;;2.44;84.87;97819.89;1759550;81;20967;-41
2022/01/06 05:50:03;;;;;;;4.85;2.55;;;;;;;2.44;85.04;97828.97;1759488;81;20970;-40
2022/01/06 05:52:29;;;;;;;3.30;2.95;;;;;;;2.41;84.95;97836.05;1759550;81;21531;-41
2022/01/06 05:54:55;;;;;;;2.98;2.60;;;;;;;2.36;85.12;97849.22;1759518;81;20967;-41
2022/01/06 05:57:21;;;;;;;5.05;2.98;;;;;;;2.43;84.86;97858.87;1759552;81;20990;-41
2022/01/06 05:59:47;;;;;;;3.85;3.27;;;;;;;2.44;84.92;97864.47;1759481;81;21139;-41
2022/01/06 06:02:13;;;;;;;6.97;3.72;;;;;;;2.41;84.95;97872.38;1759473;81;21530;-41
2022/01/06 06:04:38;;;;;;;4.03;3.20;;;;;;;2.44;85.09;97878.27;1759433;81;20959;-41
2022/01/06 06:07:04;;;;;;;6.35;3.25;;;;;;;2.47;85.14;97878.58;1759495;81;21024;-41
2022/01/06 06:09:30;;;;;;;6.78;3.60;;;;;;;2.47;85.33;97888.52;1759429;81;20970;-40
2022/01/06 06:11:56;;;;;;;4.80;3.22;;;;;;;2.49;85.01;97892.31;1759447;81;21033;-41
2022/01/06 06:14:22;;;;;;;4.10;3.30;;;;;;;2.51;85.00;97891.82;1759443;81;20994;-41
2022/01/06 06:16:47;;;;;;;8.13;3.87;;;;;;;2.56;84.88;97894.19;1759373;81;21025;-41
2022/01/06 06:19:13;;;;;;;8.53;3.70;;;;;;;2.48;84.97;97893.25;1759558;81;20975;-41
2022/01/06 06:21:39;;;;;;;5.62;3.50;;;;;;;2.37;85.56;97904.09;1759639;81;21511;-41
2022/01/06 06:24:06;;;;;;;5.12;3.77;;;;;;;2.41;85.28;97903.05;1759536;81;21511;-41
2022/01/06 06:26:32;;;;;;;5.42;3.70;;;;;;;2.38;85.49;97902.34;1759599;81;21459;-41
2022/01/06 06:28:57;;;;;;;3.95;3.55;;;;;;;2.42;85.39;97906.05;1759436;81;21025;-41
2022/01/06 06:31:23;;;;;;;5.10;3.92;;;;;;;2.43;85.43;97918.55;1759447;81;20986;-41
2022/01/06 06:33:49;;;;;;;6.15;3.83;;;;;;;2.40;85.46;97920.84;1759419;81;20979;-41
2022/01/06 06:36:15;;;;;;;4.95;3.87;;;;;;;2.42;85.39;97925.50;1759398;81;21025;-41
2022/01/06 06:38:40;;;;;;;4.33;3.33;;;;;;;2.45;85.29;97925.80;1759466;81;21046;-42
2022/01/06 06:41:06;;;;;;;5.28;3.65;;;;;;;2.45;85.22;97927.10;1759448;81;21033;-41
2022/01/06 06:43:32;;;;;;;8.28;3.55;;;;;;;2.46;85.11;97932.23;1759472;81;21054;-41
2022/01/06 06:45:58;;;;;;;3.00;2.77;;;;;;;2.47;85.00;97939.55;1759389;81;21486;-41
2022/01/06 06:48:25;;;;;;;4.42;3.40;;;;;;;2.44;84.73;97941.00;1759517;81;21021;-41
2022/01/06 06:50:51;;;;;;;3.60;2.98;;;;;;;2.47;84.78;97944.31;1759805;81;20971;-41
2022/01/06 06:53:17;;;;;;;5.08;3.40;;;;;;;2.41;84.75;97956.23;1759442;81;21657;-41
2022/01/06 06:55:43;;;;;;;5.75;3.08;;;;;;;2.39;85.00;97961.95;1759423;81;20959;-41
2022/01/06 06:58:09;;;;;;;4.10;2.80;;;;;;;2.40;85.20;97962.78;1759397;81;20987;-41
2022/01/06 07:00:34;;;;;;;5.90;2.92;;;;;;;2.40;85.06;97971.43;1759352;81;20994;-41
2022/01/06 07:03:00;;;;;;;3.27;2.37;;;;;;;2.24;84.56;97980.32;1759511;81;20967;-40
2022/01/06 07:05:26;;;;;;;3.52;2.70;;;;;;;2.19;84.06;97984.85;1759541;81;20991;-41
2022/01/06 07:07:52;;;;;;;5.03;2.90;;;;;;;2.01;84.06;97986.92;1759454;81;20966;-41
2022/01/06 07:10:18;;;;;;;7.90;3.67;;;;;;;1.90;84.41;97993.38;1728088;81;21476;-41
2022/01/06 07:12:45;;;;;;;6.22;3.47;;;;;;;1.94;83.98;97999.75;1759580;81;20963;-41
2022/01/06 07:15:13;;;;;;;;;;;;;;;1.94;83.77;97998.45;1762187;81;20986;-41
2022/01/06 07:17:41;;;;;;;9.20;4.10;;;;;;;1.95;83.68;98011.79;1759682;81;20714;-40
2022/01/06 07:20:08;;;;;;;5.37;2.50;;;;;;;1.87;82.82;98008.22;1759769;81;20998;-41
2022/01/06 07:22:34;;;;;;;;;;;;;;;1.76;81.33;98017.72;1762227;81;20966;-41
2022/01/06 07:25:03;;;;;;;14.40;6.83;;;;;;;1.70;80.94;98019.27;1759576;81;20110;-40
2022/01/06 07:27:29;;;;;;;13.78;6.78;;;;;;;1.68;81.63;98022.39;1759604;81;20998;-40
2022/01/06 07:29:55;;;;;;;11.20;5.03;;;;;;;1.66;81.62;98022.44;1759555;81;21037;-41
2022/01/06 07:32:21;;;;;;;16.55;7.65;;;;;;;1.61;81.76;98032.14;1759587;81;21507;-41
2022/01/06 07:34:47;;;;;;;14.15;6.42;;;;;;;1.54;82.07;98039.30;1759573;81;21050;-41
2022/01/06 07:37:13;;;;;;;7.47;4.08;;;;;;;1.49;82.69;98041.67;1759540;81;20999;-40
2022/01/06 07:39:39;;;;;;;14.35;7.55;;;;;;;1.26;83.21;98036.94;1759563;81;20990;-40
2022/01/06 07:42:06;;;;;;;7.08;4.12;;;;;;;1.29;83.74;98038.12;1759538;81;20959;-40
2022/01/06 07:44:31;;;;;;;13.83;7.17;;;;;;;1.31;84.04;98036.31;1759579;81;21058;-40
2022/01/06 07:46:59;;;;;;;12.53;5.50;;;;;;;1.34;84.32;98033.59;1759579;81;20967;-40
2022/01/06 07:49:25;;;;;;;7.37;3.62;;;;;;;1.32;84.66;98039.73;1759787;81;21030;-40
2022/01/06 07:51:51;;;;;;;6.97;4.03;;;;;;;1.32;84.86;98047.52;1759541;81;21174;-40
2022/01/06 07:54:16;;;;;;;7.20;3.75;;;;;;;1.36;84.69;98043.89;1759576;81;21023;-40
2022/01/06 07:56:42;;;;;;;6.65;3.10;;;;;;;1.33;84.95;98044.87;1759622;81;20991;-41
2022/01/06 07:59:09;;;;;;;4.97;3.02;;;;;;;1.36;84.99;98044.36;1759516;81;21161;-40
2022/01/06 08:01:35;;;;;;;5.80;3.27;;;;;;;1.44;84.54;98061.76;1759649;81;20979;-41
2022/01/06 08:04:01;;;;;;;8.90;3.20;;;;;;;1.38;84.75;98051.61;1759819;81;20971;-40
2022/01/06 08:06:26;;;;;;;8.30;5.20;;;;;;;1.47;84.90;98064.21;1759579;81;20994;-40
2022/01/06 08:08:52;;;;;;;6.33;3.15;;;;;;;1.52;84.30;98073.49;1759562;81;20978;-41
2022/01/06 08:11:18;;;;;;;4.80;2.95;;;;;;;1.50;83.69;98083.08;1759525;81;21502;-41
2022/01/06 08:13:44;;;;;;;12.50;5.30;;;;;;;1.47;83.70;98079.75;1759580;81;21902;-40
2022/01/06 08:16:09;;;;;;;16.05;6.75;;;;;;;1.46;83.24;98078.92;1759487;81;21022;-40
2022/01/06 08:18:35;;;;;;;17.95;7.15;;;;;;;1.45;82.86;98077.22;1759536;81;20986;-41
2022/01/06 08:21:01;;;;;;;18.30;6.50;;;;;;;1.43;82.93;98075.14;1759530;81;21033;-41
2022/01/06 08:23:27;;;;;;;13.80;5.33;;;;;;;1.45;83.14;98082.40;1759668;81;21349;-41
2022/01/06 08:25:53;;;;;;;11.70;5.15;;;;;;;1.46;82.85;98081.51;1759535;81;20984;-42
2022/01/06 08:28:19;;;;;;;12.20;5.87;;;;;;;1.38;82.55;98087.41;1759510;81;20971;-41
2022/01/06 08:30:45;;;;;;;17.12;7.72;;;;;;;1.52;82.65;98092.92;1759599;81;20986;-41
2022/01/06 08:33:12;;;;;;;18.90;6.87;;;;;;;1.53;82.53;98097.22;1759540;81;21452;-41
2022/01/06 08:35:37;;;;;;;14.90;5.90;;;;;;;1.58;82.54;98099.62;1759682;81;20986;-41
2022/01/06 08:38:03;;;;;;;20.00;9.53;;;;;;;1.67;82.85;98100.59;1759546;81;20959;-41
2022/01/06 08:40:31;;;;;;;17.50;8.98;;;;;;;1.63;82.81;98098.16;1759476;81;20983;-41
2022/01/06 08:42:56;;;;;;;13.32;6.20;;;;;;;1.70;83.05;98100.45;1756338;81;21467;-41
2022/01/06 08:45:22;;;;;;;7.62;4.90;;;;;;;1.77;83.27;98099.77;1729285;83;20989;-42
2022/01/06 08:47:48;;;;;;;13.50;4.78;;;;;;;1.84;83.22;98110.30;1729199;83;20989;-41
2022/01/06 08:50:15;;;;;;;10.78;5.53;;;;;;;1.87;82.73;98107.59;1729176;83;21021;-40
2022/01/06 08:52:42;;;;;;;9.65;5.50;;;;;;;1.92;82.71;98119.06;1729319;83;20958;-41
2022/01/06 08:55:09;;;;;;;13.22;4.85;;;;;;;1.91;81.57;98110.45;1729194;82;20959;-42
2022/01/06 08:57:35;;;;;;;;;;;;;;;1.93;81.63;98115.59;1731802;83;21130;-42
2022/01/06 09:00:04;;;;;;;10.38;4.20;;;;;;;1.89;80.82;98114.86;1729290;83;20447;-41
2022/01/06 09:02:30;;;;;;;12.18;3.67;;;;;;;1.90;80.42;98120.42;1729279;81;20997;-41
2022/01/06 09:04:56;;;;;;;9.13;3.62;;;;;;;1.99;80.17;98127.00;1745243;81;21547;-41
2022/01/06 09:07:25;;;;;;;8.23;3.60;;;;;;;1.95;79.44;98125.44;1721001;82;21482;-41
2022/01/06 09:09:51;;;;;;;8.83;4.33;;;;;;;1.99;79.75;98132.65;1719136;82;21028;-41
2022/01/06 09:12:18;;;;;;;17.60;8.13;;;;;;;2.06;79.77;98127.61;1725922;81;20974;-41
2022/01/06 09:14:46;;;;;;;9.50;5.17;;;;;;;2.18;79.64;98136.64;1722598;81;21451;-41
2022/01/06 09:17:14;;;;;;;9.45;5.20;;;;;;;2.04;78.46;98133.31;1721633;82;20966;-41
2022/01/06 09:19:40;;;;;;;11.28;5.28;;;;;;;2.09;78.73;98143.89;1722462;83;20994;-42
2022/01/06 09:22:05;;;;;;;13.70;5.72;;;;;;;2.01;78.61;98146.39;1722438;83;21009;-40
2022/01/06 09:24:32;;;;;;;11.97;5.50;;;;;;;2.00;79.24;98142.09;1722369;82;21013;-40
2022/01/06 09:26:57;;;;;;;13.95;6.62;;;;;;;1.94;79.46;98147.53;1722215;82;21018;-41
2022/01/06 09:29:23;;;;;;;15.13;5.83;;;;;;;1.86;79.97;98145.24;1722375;82;21030;-41
2022/01/06 09:31:49;;;;;;;18.12;5.72;;;;;;;1.81;80.66;98148.00;1722411;83;20970;-41
2022/01/06 09:34:15;;;;;;;26.57;8.20;;;;;;;1.77;81.08;98155.50;1722445;82;21041;-40
2022/01/06 09:36:41;;;;;;;14.18;6.28;;;;;;;1.74;81.63;98154.31;1722328;82;20993;-41
2022/01/06 09:39:11;;;;;;;30.97;11.10;;;;;;;1.63;82.46;98155.17;1722522;82;20974;-41
2022/01/06 09:41:37;;;;;;;21.93;9.63;;;;;;;1.65;82.82;98166.33;1722463;83;21037;-41
2022/01/06 09:44:04;;;;;;;32.67;9.63;;;;;;;1.54;83.67;98171.90;1728200;81;21681;-41
2022/01/06 09:46:31;;;;;;;29.57;10.15;;;;;;;1.60;83.45;98173.41;1734595;83;20994;-41
2022/01/06 09:49:01;;;;;;;23.92;7.50;;;;;;;1.57;83.56;98176.14;1707618;82;20998;-42
2022/01/06 09:51:31;;;;;;;24.02;8.90;;;;;;;1.52;84.19;98174.54;1704882;83;21049;-41
2022/01/06 09:54:00;;;;;;;23.02;7.85;;;;;;;1.47;84.41;98167.84;1726415;83;21033;-41
2022/01/06 09:56:29;;;;;;;17.75;8.25;;;;;;;1.44;84.26;98176.58;1726284;83;21606;-41
2022/01/06 09:58:56;;;;;;;14.78;6.72;;;;;;;1.33;84.88;98177.42;1725742;83;21019;-41
2022/01/06 10:01:22;;;;;;;14.78;7.10;;;;;;;1.34;85.33;98180.39;1725472;83;21337;-39
2022/01/06 10:03:50;;;;;;;11.18;5.30;;;;;;;1.29;85.52;98192.66;1725966;83;21025;-40
2022/01/06 10:06:22;;;;;;;11.45;5.62;;;;;;;1.25;86.11;98191.91;1726656;83;21582;-41
2022/01/06 10:09:02;;;;;;;15.08;6.92;;;;;;;1.28;85.97;98196.16;1726832;83;21155;-40
2022/01/06 10:11:33;;;;;;;18.90;6.90;;;;;;;1.25;86.39;98195.80;1726783;83;21507;-41
2022/01/06 10:14:11;;;;;;;14.60;6.50;;;;;;;1.32;85.88;98195.98;1726778;83;21002;-41
2022/01/06 10:16:44;;;;;;;;;;;;;;;1.33;85.56;98191.67;1729113;82;20986;-42
2022/01/06 10:19:12;;;;;;;27.55;13.32;;;;;;;1.22;85.80;98210.17;1726544;82;20452;-40
2022/01/06 10:21:44;;;;;;;20.12;10.53;;;;;;;1.25;86.40;98207.91;1726823;83;21039;-40
2022/01/06 10:24:19;;;;;;;26.87;15.00;;;;;;;1.23;86.29;98204.54;1726780;83;20975;-39
2022/01/06 10:27:06;;;;;;;10.63;6.28;;;;;;;1.18;86.50;98211.16;1726713;83;20975;-41
2022/01/06 10:29:49;;;;;;;5.45;3.20;;;;;;;1.09;85.45;98228.30;1726229;83;20987;-40
2022/01/06 10:32:23;;;;;;;4.55;3.10;;;;;;;1.02;83.82;98239.34;1726859;83;21023;-43
2022/01/06 10:34:53;;;;;;;5.22;3.35;;;;;;;0.97;83.45;98237.34;1726720;83;21463;-41
2022/01/06 10:37:35;;;;;;;8.08;4.47;;;;;;;0.82;83.77;98240.00;1725850;83;20999;-40
2022/01/06 10:40:12;;;;;;;11.90;5.95;;;;;;;0.90;83.84;98248.80;1726724;83;21475;-41
2022/01/06 10:42:41;;;;;;;4.65;3.60;;;;;;;0.83;83.93;98252.48;1726873;83;20995;-40
2022/01/06 10:45:14;;;;;;;5.53;3.22;;;;;;;0.74;83.17;98262.67;1726692;81;21571;-40
2022/01/06 10:47:49;;;;;;;5.90;3.15;;;;;;;0.82;83.58;98273.64;1726789;82;21014;-40
2022/01/06 10:50:30;;;;;;;6.90;3.70;;;;;;;0.71;83.66;98270.10;1726875;83;21502;-40
2022/01/06 10:53:01;;;;;;;5.75;3.30;;;;;;;0.71;83.17;98280.45;1726862;83;20990;-41
2022/01/06 10:55:32;;;;;;;10.60;3.62;;;;;;;0.66;82.70;98296.56;1726943;83;20982;-41
2022/01/06 10:58:12;;;;;;;5.37;2.90;;;;;;;0.41;83.29;98303.39;1725937;82;20987;-40
2022/01/06 11:00:46;;;;;;;5.30;2.60;;;;;;;0.31;84.36;98307.97;1710760;83;20994;-40
2022/01/06 11:03:21;;;;;;;3.90;2.67;;;;;;;-0.08;82.78;98325.03;1726833;83;21483;-39
2022/01/06 11:05:54;;;;;;;7.25;3.45;;;;;;;0.12;82.25;98318.01;1726888;83;20967;-40
2022/01/06 11:08:28;;;;;;;5.20;2.92;;;;;;;0.02;82.42;98326.91;1726893;83;21034;-40
2022/01/06 11:11:16;;;;;;;57.25;21.25;;;;;;;0.05;82.06;98331.55;1726865;82;20959;-41
2022/01/06 11:13:41;;;;;;;18.60;7.55;;;;;;;0.10;81.35;98324.52;1723595;83;21050;-41
2022/01/06 11:16:12;;;;;;;12.90;5.55;;;;;;;0.16;81.80;98324.78;1726839;83;21337;-40
2022/01/06 11:18:43;;;;;;;20.62;10.60;;;;;;;0.12;80.15;98341.28;1727125;83;20987;-41
2022/01/06 11:21:16;;;;;;;21.05;11.03;;;;;;;0.12;79.52;98339.53;1719762;83;21011;-41
2022/01/06 11:23:43;;;;;;;6.95;3.98;;;;;;;0.07;77.66;98345.72;1726899;83;21110;-41
2022/01/06 11:26:18;;;;;;;8.75;4.00;;;;;;;0.11;77.64;98353.36;1726866;83;20967;-40
2022/01/06 11:28:55;;;;;;;8.63;6.22;;;;;;;0.12;77.38;98351.16;1726844;83;21026;-41
2022/01/06 11:31:24;;;;;;;15.97;8.30;;;;;;;0.07;76.19;98357.36;1727017;83;20967;-41
2022/01/06 11:33:52;;;;;;;20.62;8.48;;;;;;;0.07;76.19;98357.36;1726937;83;21015;-42
2022/01/06 11:36:35;;;;;;;14.35;6.80;;;;;;;0.16;75.70;98372.19;1726819;83;20991;-40
2022/01/06 11:39:05;;;;;;;26.30;9.00;;;;;;;0.12;74.91;98378.77;1726766;83;20958;-41
2022/01/06 11:41:38;;;;;;;15.40;6.55;;;;;;;0.22;75.35;98378.05;1726977;83;21006;-41
2022/01/06 11:44:17;;;;;;;9.40;3.77;;;;;;;0.29;74.69;98389.50;1726882;82;21049;-40
2022/01/06 11:46:48;;;;;;;5.00;2.33;;;;;;;0.23;73.49;98392.23;1726376;82;20991;-41
2022/01/06 11:49:15;;;;;;;8.88;4.00;;;;;;;0.18;72.35;98401.84;1726091;82;20959;-41